CheckWX is a tool to help pilots better visualize weather data.  It is not intended as a substitute for an official pre-flight weather briefing.

07:07:29 UTC

6R6 METAR
Terrell County Airport
Dryden, Texas, USA
Current

14 mins ago

K6R6 210653Z AUTO 12011KT 28/18 A2992 RMK AO1 SLP090 T02830178
Observed
Sep-21 @ 06:53 UTC
Wind
  • 120° at 11 KTS
Visibility
Temperature
28°C / 82°F
Dewpoint
18°C / 64°F
Heat Index
29°C / 84°F
Humidity
55%
Altimeter
29.92" Hg
Pressure
1013.22 hPa
Previous

1 hour ago

K6R6 210553Z AUTO 11011KT 29/18 A2992 RMK AO1 SLP091 T02890178 10317 20289 403440228 50003
Observed
Sep-21 @ 05:53 UTC
Wind
  • 110° at 11 KTS
Visibility
Temperature
29°C / 84°F
Dewpoint
18°C / 64°F
Heat Index
29°C / 85°F
Humidity
51%
Altimeter
29.92" Hg
Pressure
1013.22 hPa
Previous

2 hours ago

K6R6 210453Z AUTO 10008KT 29/18 A2996 RMK AO1 SLP105 T02940183
Observed
Sep-21 @ 04:53 UTC
Wind
  • 100° at 8 KTS
Visibility
Temperature
29°C / 84°F
Dewpoint
18°C / 64°F
Heat Index
29°C / 85°F
Humidity
51%
Altimeter
29.96" Hg
Pressure
1014.52 hPa